sensor_id;sensor_type;location;lat;lon;timestamp;P1;durP1;ratioP1;P2;durP2;ratioP2
42098;SDS011;27758;55.900;8.516;2022-09-12T00:01:18;8.82;;;4.47;;
42098;SDS011;27758;55.900;8.516;2022-09-12T00:03:55;8.98;;;5.38;;
42098;SDS011;27758;55.900;8.516;2022-09-12T00:06:24;10.05;;;5.78;;
42098;SDS011;27758;55.900;8.516;2022-09-12T00:08:55;7.97;;;4.82;;
42098;SDS011;27758;55.900;8.516;2022-09-12T00:11:24;7.78;;;5.32;;
42098;SDS011;27758;55.900;8.516;2022-09-12T00:13:51;8.20;;;5.07;;
42098;SDS011;27758;55.900;8.516;2022-09-12T00:16:22;9.68;;;6.15;;
42098;SDS011;27758;55.900;8.516;2022-09-12T00:18:49;8.95;;;4.90;;
42098;SDS011;27758;55.900;8.516;2022-09-12T00:21:17;8.10;;;5.10;;
42098;SDS011;27758;55.900;8.516;2022-09-12T00:23:44;7.50;;;4.88;;
42098;SDS011;27758;55.900;8.516;2022-09-12T00:26:11;8.60;;;5.18;;
42098;SDS011;27758;55.900;8.516;2022-09-12T00:28:37;8.18;;;5.20;;
42098;SDS011;27758;55.900;8.516;2022-09-12T00:31:09;7.40;;;5.13;;
42098;SDS011;27758;55.900;8.516;2022-09-12T00:33:37;10.18;;;6.28;;
42098;SDS011;27758;55.900;8.516;2022-09-12T00:36:04;10.05;;;6.10;;
42098;SDS011;27758;55.900;8.516;2022-09-12T00:38:33;12.15;;;6.63;;
42098;SDS011;27758;55.900;8.516;2022-09-12T00:41:06;7.63;;;4.97;;
42098;SDS011;27758;55.900;8.516;2022-09-12T00:43:38;8.27;;;5.80;;
42098;SDS011;27758;55.900;8.516;2022-09-12T00:46:18;8.93;;;5.78;;
42098;SDS011;27758;55.900;8.516;2022-09-12T00:51:25;8.18;;;5.15;;
42098;SDS011;27758;55.900;8.516;2022-09-12T00:53:54;7.82;;;5.10;;
42098;SDS011;27758;55.900;8.516;2022-09-12T00:56:21;7.57;;;5.57;;
42098;SDS011;27758;55.900;8.516;2022-09-12T00:58:50;7.15;;;5.60;;
42098;SDS011;27758;55.900;8.516;2022-09-12T01:01:25;9.68;;;5.95;;
42098;SDS011;27758;55.900;8.516;2022-09-12T01:03:51;9.70;;;4.90;;
42098;SDS011;27758;55.900;8.516;2022-09-12T01:06:18;7.63;;;6.13;;
42098;SDS011;27758;55.900;8.516;2022-09-12T01:08:48;8.27;;;6.75;;
42098;SDS011;27758;55.900;8.516;2022-09-12T01:11:17;9.82;;;7.35;;
42098;SDS011;27758;55.900;8.516;2022-09-12T01:13:44;11.48;;;7.45;;
42098;SDS011;27758;55.900;8.516;2022-09-12T01:16:10;11.30;;;7.13;;
42098;SDS011;27758;55.900;8.516;2022-09-12T01:21:17;8.77;;;5.45;;
42098;SDS011;27758;55.900;8.516;2022-09-12T01:40:21;6.70;;;4.70;;
42098;SDS011;27758;55.900;8.516;2022-09-12T01:42:53;10.20;;;6.30;;
42098;SDS011;27758;55.900;8.516;2022-09-12T01:50:39;7.38;;;5.45;;
42098;SDS011;27758;55.900;8.516;2022-09-12T01:53:13;9.05;;;6.03;;
42098;SDS011;27758;55.900;8.516;2022-09-12T01:55:45;7.03;;;4.93;;
42098;SDS011;27758;55.900;8.516;2022-09-12T01:58:23;9.20;;;5.22;;
42098;SDS011;27758;55.900;8.516;2022-09-12T02:01:01;5.75;;;4.63;;
42098;SDS011;27758;55.900;8.516;2022-09-12T02:03:33;10.50;;;6.75;;
42098;SDS011;27758;55.900;8.516;2022-09-12T02:06:25;12.85;;;5.47;;
42098;SDS011;27758;55.900;8.516;2022-09-12T02:09:02;8.32;;;5.80;;
42098;SDS011;27758;55.900;8.516;2022-09-12T02:11:42;11.07;;;5.80;;
42098;SDS011;27758;55.900;8.516;2022-09-12T02:14:23;8.27;;;4.80;;
42098;SDS011;27758;55.900;8.516;2022-09-12T02:16:59;6.55;;;4.80;;
42098;SDS011;27758;55.900;8.516;2022-09-12T02:19:35;5.57;;;4.40;;
42098;SDS011;27758;55.900;8.516;2022-09-12T02:22:24;8.95;;;4.60;;
42098;SDS011;27758;55.900;8.516;2022-09-12T02:27:31;7.40;;;4.75;;
42098;SDS011;27758;55.900;8.516;2022-09-12T02:30:05;7.00;;;4.15;;
42098;SDS011;27758;55.900;8.516;2022-09-12T02:32:35;6.75;;;4.68;;
42098;SDS011;27758;55.900;8.516;2022-09-12T02:35:13;7.05;;;4.70;;
42098;SDS011;27758;55.900;8.516;2022-09-12T02:40:28;8.02;;;5.28;;
42098;SDS011;27758;55.900;8.516;2022-09-12T02:42:55;6.57;;;4.35;;
42098;SDS011;27758;55.900;8.516;2022-09-12T02:45:21;6.72;;;4.82;;
42098;SDS011;27758;55.900;8.516;2022-09-12T02:47:49;4.82;;;3.65;;
42098;SDS011;27758;55.900;8.516;2022-09-12T02:50:48;9.30;;;5.30;;
42098;SDS011;27758;55.900;8.516;2022-09-12T02:53:14;14.45;;;8.73;;
42098;SDS011;27758;55.900;8.516;2022-09-12T02:55:41;16.35;;;10.80;;
42098;SDS011;27758;55.900;8.516;2022-09-12T02:58:09;15.80;;;9.80;;
42098;SDS011;27758;55.900;8.516;2022-09-12T03:00:41;13.35;;;8.48;;
42098;SDS011;27758;55.900;8.516;2022-09-12T03:05:56;13.88;;;6.70;;
42098;SDS011;27758;55.900;8.516;2022-09-12T03:13:34;7.93;;;5.85;;
42098;SDS011;27758;55.900;8.516;2022-09-12T03:19:34;11.57;;;5.90;;
42098;SDS011;27758;55.900;8.516;2022-09-12T03:22:21;7.57;;;6.07;;
42098;SDS011;27758;55.900;8.516;2022-09-12T03:28:13;11.85;;;6.45;;
42098;SDS011;27758;55.900;8.516;2022-09-12T03:30:42;10.65;;;6.30;;
42098;SDS011;27758;55.900;8.516;2022-09-12T03:33:13;9.70;;;6.38;;
42098;SDS011;27758;55.900;8.516;2022-09-12T03:35:40;10.55;;;7.57;;
42098;SDS011;27758;55.900;8.516;2022-09-12T03:38:06;8.65;;;6.88;;
42098;SDS011;27758;55.900;8.516;2022-09-12T03:40:34;9.48;;;7.07;;
42098;SDS011;27758;55.900;8.516;2022-09-12T03:43:01;9.25;;;7.18;;
42098;SDS011;27758;55.900;8.516;2022-09-12T03:45:28;8.32;;;6.82;;
42098;SDS011;27758;55.900;8.516;2022-09-12T03:47:53;9.60;;;6.63;;
42098;SDS011;27758;55.900;8.516;2022-09-12T03:50:19;7.97;;;6.65;;
42098;SDS011;27758;55.900;8.516;2022-09-12T03:52:45;7.38;;;6.55;;
42098;SDS011;27758;55.900;8.516;2022-09-12T03:55:11;7.90;;;6.03;;
42098;SDS011;27758;55.900;8.516;2022-09-12T03:57:37;6.22;;;5.63;;
42098;SDS011;27758;55.900;8.516;2022-09-12T04:00:03;8.38;;;6.53;;
42098;SDS011;27758;55.900;8.516;2022-09-12T04:02:31;9.07;;;6.28;;
42098;SDS011;27758;55.900;8.516;2022-09-12T04:04:57;10.68;;;7.97;;
42098;SDS011;27758;55.900;8.516;2022-09-12T04:07:23;10.80;;;7.57;;
42098;SDS011;27758;55.900;8.516;2022-09-12T04:09:49;10.38;;;7.18;;
42098;SDS011;27758;55.900;8.516;2022-09-12T04:12:15;8.38;;;6.85;;
42098;SDS011;27758;55.900;8.516;2022-09-12T04:14:40;8.65;;;7.63;;
42098;SDS011;27758;55.900;8.516;2022-09-12T04:17:06;9.82;;;7.95;;
42098;SDS011;27758;55.900;8.516;2022-09-12T04:19:33;8.75;;;7.35;;
42098;SDS011;27758;55.900;8.516;2022-09-12T04:21:58;7.30;;;6.57;;
42098;SDS011;27758;55.900;8.516;2022-09-12T04:24:27;14.20;;;7.15;;
42098;SDS011;27758;55.900;8.516;2022-09-12T04:26:53;9.77;;;7.90;;
42098;SDS011;27758;55.900;8.516;2022-09-12T04:29:19;10.00;;;8.52;;
42098;SDS011;27758;55.900;8.516;2022-09-12T04:31:45;10.27;;;8.10;;
42098;SDS011;27758;55.900;8.516;2022-09-12T04:34:11;11.25;;;8.93;;
42098;SDS011;27758;55.900;8.516;2022-09-12T04:36:37;14.35;;;9.32;;
42098;SDS011;27758;55.900;8.516;2022-09-12T04:39:03;12.30;;;8.38;;
42098;SDS011;27758;55.900;8.516;2022-09-12T04:41:30;9.63;;;8.55;;
42098;SDS011;27758;55.900;8.516;2022-09-12T04:43:58;14.80;;;10.02;;
42098;SDS011;27758;55.900;8.516;2022-09-12T04:46:28;11.50;;;8.95;;
42098;SDS011;27758;55.900;8.516;2022-09-12T04:48:55;14.23;;;9.05;;
42098;SDS011;27758;55.900;8.516;2022-09-12T04:51:22;13.35;;;9.63;;
42098;SDS011;27758;55.900;8.516;2022-09-12T04:53:53;14.80;;;9.85;;
42098;SDS011;27758;55.900;8.516;2022-09-12T04:56:22;11.48;;;8.23;;
42098;SDS011;27758;55.900;8.516;2022-09-12T04:58:48;12.23;;;8.95;;
42098;SDS011;27758;55.900;8.516;2022-09-12T05:01:15;13.13;;;9.10;;
42098;SDS011;27758;55.900;8.516;2022-09-12T05:03:43;11.83;;;9.17;;
42098;SDS011;27758;55.900;8.516;2022-09-12T05:06:15;12.45;;;9.25;;
42098;SDS011;27758;55.900;8.516;2022-09-12T05:08:46;11.20;;;9.77;;
42098;SDS011;27758;55.900;8.516;2022-09-12T05:11:16;12.70;;;10.07;;
42098;SDS011;27758;55.900;8.516;2022-09-12T05:13:43;14.25;;;10.25;;
42098;SDS011;27758;55.900;8.516;2022-09-12T05:16:10;12.32;;;10.30;;
42098;SDS011;27758;55.900;8.516;2022-09-12T05:18:41;12.73;;;10.50;;
42098;SDS011;27758;55.900;8.516;2022-09-12T05:21:10;12.65;;;9.45;;
42098;SDS011;27758;55.900;8.516;2022-09-12T05:23:37;11.98;;;9.57;;
42098;SDS011;27758;55.900;8.516;2022-09-12T05:26:04;11.35;;;9.57;;
42098;SDS011;27758;55.900;8.516;2022-09-12T05:28:32;15.25;;;9.50;;
42098;SDS011;27758;55.900;8.516;2022-09-12T05:33:33;13.00;;;10.25;;
42098;SDS011;27758;55.900;8.516;2022-09-12T05:36:02;12.55;;;10.13;;
42098;SDS011;27758;55.900;8.516;2022-09-12T05:38:30;11.38;;;9.35;;
42098;SDS011;27758;55.900;8.516;2022-09-12T05:43:30;11.55;;;9.30;;
42098;SDS011;27758;55.900;8.516;2022-09-12T05:46:00;11.02;;;9.48;;
42098;SDS011;27758;55.900;8.516;2022-09-12T05:48:27;10.73;;;9.55;;
42098;SDS011;27758;55.900;8.516;2022-09-12T05:51:03;12.88;;;9.43;;
42098;SDS011;27758;55.900;8.516;2022-09-12T05:53:37;11.18;;;10.00;;
42098;SDS011;27758;55.900;8.516;2022-09-12T05:56:04;12.45;;;9.40;;
42098;SDS011;27758;55.900;8.516;2022-09-12T05:58:33;10.18;;;9.00;;
42098;SDS011;27758;55.900;8.516;2022-09-12T06:01:04;10.98;;;9.43;;
42098;SDS011;27758;55.900;8.516;2022-09-12T06:03:32;12.73;;;10.55;;
42098;SDS011;27758;55.900;8.516;2022-09-12T06:06:03;12.52;;;9.68;;
42098;SDS011;27758;55.900;8.516;2022-09-12T06:08:33;10.65;;;8.93;;
42098;SDS011;27758;55.900;8.516;2022-09-12T06:11:04;10.90;;;9.77;;
42098;SDS011;27758;55.900;8.516;2022-09-12T06:13:31;13.07;;;10.75;;
42098;SDS011;27758;55.900;8.516;2022-09-12T06:16:08;12.65;;;10.30;;
42098;SDS011;27758;55.900;8.516;2022-09-12T06:21:09;15.60;;;10.73;;
42098;SDS011;27758;55.900;8.516;2022-09-12T06:23:36;12.30;;;10.57;;
42098;SDS011;27758;55.900;8.516;2022-09-12T06:26:03;12.60;;;11.25;;
42098;SDS011;27758;55.900;8.516;2022-09-12T06:28:30;12.75;;;10.25;;
42098;SDS011;27758;55.900;8.516;2022-09-12T06:31:16;11.75;;;9.82;;
42098;SDS011;27758;55.900;8.516;2022-09-12T06:33:45;16.25;;;11.30;;
42098;SDS011;27758;55.900;8.516;2022-09-12T06:36:13;13.00;;;10.93;;
42098;SDS011;27758;55.900;8.516;2022-09-12T06:38:54;12.98;;;10.65;;
42098;SDS011;27758;55.900;8.516;2022-09-12T06:41:21;14.85;;;10.80;;
42098;SDS011;27758;55.900;8.516;2022-09-12T06:43:48;11.65;;;10.05;;
42098;SDS011;27758;55.900;8.516;2022-09-12T06:46:14;17.75;;;11.32;;
42098;SDS011;27758;55.900;8.516;2022-09-12T06:48:40;13.45;;;10.00;;
42098;SDS011;27758;55.900;8.516;2022-09-12T06:51:08;12.98;;;10.45;;
42098;SDS011;27758;55.900;8.516;2022-09-12T06:56:03;13.38;;;9.32;;
42098;SDS011;27758;55.900;8.516;2022-09-12T06:58:33;12.20;;;9.90;;
42098;SDS011;27758;55.900;8.516;2022-09-12T07:01:04;11.82;;;9.80;;
42098;SDS011;27758;55.900;8.516;2022-09-12T07:03:35;12.80;;;9.45;;
42098;SDS011;27758;55.900;8.516;2022-09-12T07:06:02;11.40;;;10.02;;
42098;SDS011;27758;55.900;8.516;2022-09-12T07:08:30;14.20;;;10.27;;
42098;SDS011;27758;55.900;8.516;2022-09-12T07:11:06;15.43;;;10.50;;
42098;SDS011;27758;55.900;8.516;2022-09-12T07:16:03;11.80;;;9.57;;
42098;SDS011;27758;55.900;8.516;2022-09-12T07:18:30;12.07;;;9.52;;
42098;SDS011;27758;55.900;8.516;2022-09-12T07:21:02;11.32;;;9.25;;
42098;SDS011;27758;55.900;8.516;2022-09-12T07:23:29;10.40;;;8.43;;
42098;SDS011;27758;55.900;8.516;2022-09-12T07:25:56;11.07;;;9.18;;
42098;SDS011;27758;55.900;8.516;2022-09-12T07:28:27;10.65;;;8.73;;
42098;SDS011;27758;55.900;8.516;2022-09-12T07:30:54;11.85;;;9.40;;
42098;SDS011;27758;55.900;8.516;2022-09-12T07:33:22;11.50;;;8.55;;
42098;SDS011;27758;55.900;8.516;2022-09-12T07:35:49;10.88;;;8.98;;
42098;SDS011;27758;55.900;8.516;2022-09-12T07:38:15;12.07;;;8.77;;
42098;SDS011;27758;55.900;8.516;2022-09-12T07:40:41;9.80;;;7.78;;
42098;SDS011;27758;55.900;8.516;2022-09-12T07:43:08;10.20;;;8.77;;
42098;SDS011;27758;55.900;8.516;2022-09-12T07:45:33;14.63;;;8.13;;
42098;SDS011;27758;55.900;8.516;2022-09-12T07:47:59;10.18;;;8.15;;
42098;SDS011;27758;55.900;8.516;2022-09-12T07:50:25;12.75;;;9.52;;
42098;SDS011;27758;55.900;8.516;2022-09-12T07:52:54;12.15;;;9.77;;
42098;SDS011;27758;55.900;8.516;2022-09-12T07:55:20;12.93;;;9.63;;
42098;SDS011;27758;55.900;8.516;2022-09-12T07:57:50;12.13;;;10.10;;
42098;SDS011;27758;55.900;8.516;2022-09-12T08:00:16;11.75;;;9.90;;
42098;SDS011;27758;55.900;8.516;2022-09-12T08:02:43;11.57;;;9.45;;
42098;SDS011;27758;55.900;8.516;2022-09-12T08:05:09;11.70;;;9.45;;
42098;SDS011;27758;55.900;8.516;2022-09-12T08:07:35;12.65;;;9.75;;
42098;SDS011;27758;55.900;8.516;2022-09-12T08:10:01;10.32;;;8.50;;
42098;SDS011;27758;55.900;8.516;2022-09-12T08:12:27;12.30;;;8.38;;
42098;SDS011;27758;55.900;8.516;2022-09-12T08:14:53;8.25;;;7.18;;
42098;SDS011;27758;55.900;8.516;2022-09-12T08:17:19;10.38;;;7.93;;
42098;SDS011;27758;55.900;8.516;2022-09-12T08:19:45;9.68;;;7.15;;
42098;SDS011;27758;55.900;8.516;2022-09-12T08:22:12;8.57;;;6.70;;
42098;SDS011;27758;55.900;8.516;2022-09-12T08:24:38;13.25;;;7.10;;
42098;SDS011;27758;55.900;8.516;2022-09-12T08:27:04;8.57;;;6.53;;
42098;SDS011;27758;55.900;8.516;2022-09-12T08:29:30;7.78;;;6.35;;
42098;SDS011;27758;55.900;8.516;2022-09-12T08:31:56;8.07;;;6.65;;
42098;SDS011;27758;55.900;8.516;2022-09-12T08:34:22;7.05;;;6.35;;
42098;SDS011;27758;55.900;8.516;2022-09-12T08:36:49;10.10;;;7.80;;
42098;SDS011;27758;55.900;8.516;2022-09-12T08:39:15;8.50;;;7.13;;
42098;SDS011;27758;55.900;8.516;2022-09-12T08:41:45;9.43;;;6.20;;
42098;SDS011;27758;55.900;8.516;2022-09-12T08:44:24;10.65;;;6.38;;
42098;SDS011;27758;55.900;8.516;2022-09-12T08:46:57;8.82;;;6.72;;
42098;SDS011;27758;55.900;8.516;2022-09-12T08:49:33;8.88;;;6.97;;
42098;SDS011;27758;55.900;8.516;2022-09-12T08:52:30;8.63;;;6.78;;
42098;SDS011;27758;55.900;8.516;2022-09-12T08:57:50;10.52;;;8.20;;
42098;SDS011;27758;55.900;8.516;2022-09-12T09:00:16;10.25;;;8.15;;
42098;SDS011;27758;55.900;8.516;2022-09-12T09:02:57;8.75;;;7.85;;
42098;SDS011;27758;55.900;8.516;2022-09-12T09:08:11;10.68;;;7.90;;
42098;SDS011;27758;55.900;8.516;2022-09-12T09:13:35;12.13;;;8.13;;
42098;SDS011;27758;55.900;8.516;2022-09-12T09:16:38;9.32;;;8.00;;
42098;SDS011;27758;55.900;8.516;2022-09-12T09:19:09;10.32;;;8.38;;
42098;SDS011;27758;55.900;8.516;2022-09-12T09:21:49;9.90;;;8.13;;
42098;SDS011;27758;55.900;8.516;2022-09-12T09:24:43;8.98;;;7.70;;
42098;SDS011;27758;55.900;8.516;2022-09-12T09:28:16;11.07;;;8.02;;
42098;SDS011;27758;55.900;8.516;2022-09-12T09:30:13;11.95;;;8.75;;
42098;SDS011;27758;55.900;8.516;2022-09-12T09:32:41;13.13;;;9.27;;
42098;SDS011;27758;55.900;8.516;2022-09-12T09:45:47;12.45;;;8.73;;
42098;SDS011;27758;55.900;8.516;2022-09-12T09:50:51;10.60;;;7.88;;
42098;SDS011;27758;55.900;8.516;2022-09-12T09:53:28;14.13;;;8.95;;
42098;SDS011;27758;55.900;8.516;2022-09-12T09:56:26;11.00;;;8.68;;
42098;SDS011;27758;55.900;8.516;2022-09-12T10:04:54;11.70;;;8.55;;
42098;SDS011;27758;55.900;8.516;2022-09-12T10:07:21;10.27;;;8.40;;
42098;SDS011;27758;55.900;8.516;2022-09-12T10:12:40;11.30;;;7.20;;
42098;SDS011;27758;55.900;8.516;2022-09-12T10:15:17;10.80;;;7.65;;
42098;SDS011;27758;55.900;8.516;2022-09-12T10:17:44;7.53;;;6.32;;
42098;SDS011;27758;55.900;8.516;2022-09-12T10:20:34;9.35;;;7.18;;
42098;SDS011;27758;55.900;8.516;2022-09-12T10:22:58;9.15;;;6.95;;
42098;SDS011;27758;55.900;8.516;2022-09-12T10:25:26;8.13;;;5.97;;
42098;SDS011;27758;55.900;8.516;2022-09-12T10:27:53;9.57;;;7.10;;
42098;SDS011;27758;55.900;8.516;2022-09-12T10:30:22;9.30;;;6.65;;
42098;SDS011;27758;55.900;8.516;2022-09-12T10:32:52;8.82;;;6.63;;
42098;SDS011;27758;55.900;8.516;2022-09-12T10:35:23;8.10;;;5.80;;
42098;SDS011;27758;55.900;8.516;2022-09-12T10:37:59;7.78;;;6.25;;
42098;SDS011;27758;55.900;8.516;2022-09-12T10:40:30;9.35;;;6.07;;
42098;SDS011;27758;55.900;8.516;2022-09-12T10:43:14;8.25;;;5.30;;
42098;SDS011;27758;55.900;8.516;2022-09-12T10:45:43;9.57;;;5.05;;
42098;SDS011;27758;55.900;8.516;2022-09-12T10:48:51;12.18;;;5.72;;
42098;SDS011;27758;55.900;8.516;2022-09-12T10:50:58;8.02;;;4.95;;
42098;SDS011;27758;55.900;8.516;2022-09-12T10:53:27;8.88;;;6.00;;
42098;SDS011;27758;55.900;8.516;2022-09-12T10:56:04;9.85;;;5.70;;
42098;SDS011;27758;55.900;8.516;2022-09-12T11:09:18;6.90;;;5.75;;
42098;SDS011;27758;55.900;8.516;2022-09-12T11:25:56;5.25;;;4.45;;
42098;SDS011;27758;55.900;8.516;2022-09-12T11:31:30;7.90;;;5.75;;
42098;SDS011;27758;55.900;8.516;2022-09-12T11:39:28;11.27;;;5.43;;
42098;SDS011;27758;55.900;8.516;2022-09-12T11:42:11;9.73;;;6.13;;
42098;SDS011;27758;55.900;8.516;2022-09-12T11:44:45;6.88;;;5.60;;
42098;SDS011;27758;55.900;8.516;2022-09-12T11:47:18;10.45;;;6.75;;
42098;SDS011;27758;55.900;8.516;2022-09-12T11:49:46;7.95;;;6.20;;
42098;SDS011;27758;55.900;8.516;2022-09-12T11:52:25;9.00;;;6.50;;
42098;SDS011;27758;55.900;8.516;2022-09-12T11:55:05;9.18;;;6.35;;
42098;SDS011;27758;55.900;8.516;2022-09-12T11:57:48;8.85;;;6.68;;
42098;SDS011;27758;55.900;8.516;2022-09-12T12:03:16;10.45;;;7.25;;
42098;SDS011;27758;55.900;8.516;2022-09-12T12:05:56;9.23;;;6.50;;
42098;SDS011;27758;55.900;8.516;2022-09-12T12:08:31;11.10;;;6.15;;
42098;SDS011;27758;55.900;8.516;2022-09-12T12:11:03;8.88;;;6.68;;
42098;SDS011;27758;55.900;8.516;2022-09-12T12:13:33;7.65;;;5.70;;
42098;SDS011;27758;55.900;8.516;2022-09-12T12:18:45;10.90;;;7.05;;
42098;SDS011;27758;55.900;8.516;2022-09-12T12:24:01;9.63;;;7.10;;
42098;SDS011;27758;55.900;8.516;2022-09-12T12:29:09;8.95;;;6.38;;
42098;SDS011;27758;55.900;8.516;2022-09-12T12:34:38;8.68;;;6.35;;
42098;SDS011;27758;55.900;8.516;2022-09-12T12:45:45;8.82;;;7.05;;
42098;SDS011;27758;55.900;8.516;2022-09-12T12:47:57;11.60;;;7.22;;
42098;SDS011;27758;55.900;8.516;2022-09-12T12:50:35;12.32;;;7.40;;
42098;SDS011;27758;55.900;8.516;2022-09-12T12:55:44;12.38;;;8.07;;
42098;SDS011;27758;55.900;8.516;2022-09-12T13:01:18;12.30;;;7.73;;
42098;SDS011;27758;55.900;8.516;2022-09-12T13:04:32;11.93;;;8.73;;
42098;SDS011;27758;55.900;8.516;2022-09-12T13:06:39;8.80;;;7.13;;
42098;SDS011;27758;55.900;8.516;2022-09-12T13:17:21;16.77;;;8.75;;
42098;SDS011;27758;55.900;8.516;2022-09-12T13:19:49;12.18;;;8.15;;
42098;SDS011;27758;55.900;8.516;2022-09-12T13:22:18;12.23;;;7.60;;
42098;SDS011;27758;55.900;8.516;2022-09-12T13:27:17;11.85;;;9.27;;
42098;SDS011;27758;55.900;8.516;2022-09-12T13:29:44;13.43;;;8.80;;
42098;SDS011;27758;55.900;8.516;2022-09-12T13:32:10;15.18;;;9.27;;
42098;SDS011;27758;55.900;8.516;2022-09-12T13:34:42;12.88;;;8.60;;
42098;SDS011;27758;55.900;8.516;2022-09-12T13:37:30;16.20;;;9.98;;
42098;SDS011;27758;55.900;8.516;2022-09-12T13:43:19;12.13;;;9.48;;
42098;SDS011;27758;55.900;8.516;2022-09-12T13:45:47;12.45;;;10.07;;
42098;SDS011;27758;55.900;8.516;2022-09-12T13:48:17;14.45;;;10.82;;
42098;SDS011;27758;55.900;8.516;2022-09-12T13:50:49;16.75;;;10.90;;
42098;SDS011;27758;55.900;8.516;2022-09-12T13:53:22;16.65;;;11.32;;
42098;SDS011;27758;55.900;8.516;2022-09-12T13:55:56;15.18;;;11.48;;
42098;SDS011;27758;55.900;8.516;2022-09-12T13:58:25;18.20;;;11.43;;
42098;SDS011;27758;55.900;8.516;2022-09-12T14:03:40;22.95;;;13.77;;
42098;SDS011;27758;55.900;8.516;2022-09-12T14:06:41;17.23;;;12.93;;
42098;SDS011;27758;55.900;8.516;2022-09-12T14:09:22;16.35;;;11.70;;
42098;SDS011;27758;55.900;8.516;2022-09-12T14:11:56;13.68;;;11.23;;
42098;SDS011;27758;55.900;8.516;2022-09-12T14:16:51;20.08;;;13.82;;
42098;SDS011;27758;55.900;8.516;2022-09-12T14:19:19;17.23;;;12.52;;
42098;SDS011;27758;55.900;8.516;2022-09-12T14:21:49;19.92;;;13.05;;
42098;SDS011;27758;55.900;8.516;2022-09-12T14:24:17;20.85;;;13.75;;
42098;SDS011;27758;55.900;8.516;2022-09-12T14:26:49;17.65;;;13.48;;
42098;SDS011;27758;55.900;8.516;2022-09-12T14:29:18;20.33;;;14.07;;
42098;SDS011;27758;55.900;8.516;2022-09-12T14:31:46;15.63;;;12.02;;
42098;SDS011;27758;55.900;8.516;2022-09-12T14:34:23;20.13;;;12.57;;
42098;SDS011;27758;55.900;8.516;2022-09-12T14:36:50;17.42;;;13.07;;
42098;SDS011;27758;55.900;8.516;2022-09-12T14:41:59;15.68;;;12.00;;
42098;SDS011;27758;55.900;8.516;2022-09-12T14:44:29;20.70;;;13.52;;
42098;SDS011;27758;55.900;8.516;2022-09-12T14:46:58;22.88;;;12.38;;
42098;SDS011;27758;55.900;8.516;2022-09-12T14:49:35;16.65;;;12.20;;
42098;SDS011;27758;55.900;8.516;2022-09-12T14:52:06;20.30;;;12.20;;
42098;SDS011;27758;55.900;8.516;2022-09-12T14:54:54;19.00;;;12.30;;
42098;SDS011;27758;55.900;8.516;2022-09-12T14:57:40;19.00;;;13.15;;
42098;SDS011;27758;55.900;8.516;2022-09-12T15:02:39;17.70;;;12.18;;
42098;SDS011;27758;55.900;8.516;2022-09-12T15:07:33;17.55;;;11.98;;
42098;SDS011;27758;55.900;8.516;2022-09-12T15:10:46;19.63;;;13.75;;
42098;SDS011;27758;55.900;8.516;2022-09-12T15:12:48;16.65;;;12.15;;
42098;SDS011;27758;55.900;8.516;2022-09-12T15:15:18;16.38;;;12.07;;
42098;SDS011;27758;55.900;8.516;2022-09-12T15:17:45;18.75;;;12.15;;
42098;SDS011;27758;55.900;8.516;2022-09-12T15:20:11;17.70;;;12.85;;
42098;SDS011;27758;55.900;8.516;2022-09-12T15:22:38;16.20;;;12.07;;
42098;SDS011;27758;55.900;8.516;2022-09-12T15:25:05;18.05;;;11.80;;
42098;SDS011;27758;55.900;8.516;2022-09-12T15:27:32;18.40;;;11.90;;
42098;SDS011;27758;55.900;8.516;2022-09-12T15:29:58;14.90;;;10.45;;
42098;SDS011;27758;55.900;8.516;2022-09-12T15:32:24;14.95;;;10.90;;
42098;SDS011;27758;55.900;8.516;2022-09-12T15:34:52;17.58;;;11.88;;
42098;SDS011;27758;55.900;8.516;2022-09-12T15:37:19;15.55;;;11.73;;
42098;SDS011;27758;55.900;8.516;2022-09-12T15:39:46;17.33;;;12.35;;
42098;SDS011;27758;55.900;8.516;2022-09-12T15:42:12;22.70;;;13.63;;
42098;SDS011;27758;55.900;8.516;2022-09-12T15:44:39;19.55;;;13.10;;
42098;SDS011;27758;55.900;8.516;2022-09-12T15:47:05;19.27;;;13.00;;
42098;SDS011;27758;55.900;8.516;2022-09-12T15:49:32;21.30;;;13.70;;
42098;SDS011;27758;55.900;8.516;2022-09-12T15:51:58;19.85;;;14.63;;
42098;SDS011;27758;55.900;8.516;2022-09-12T15:54:24;21.98;;;14.52;;
42098;SDS011;27758;55.900;8.516;2022-09-12T15:56:50;17.15;;;13.25;;
42098;SDS011;27758;55.900;8.516;2022-09-12T15:59:16;15.98;;;13.18;;
42098;SDS011;27758;55.900;8.516;2022-09-12T16:01:42;20.77;;;14.07;;
42098;SDS011;27758;55.900;8.516;2022-09-12T16:04:21;19.33;;;13.05;;
42098;SDS011;27758;55.900;8.516;2022-09-12T16:06:48;17.92;;;12.73;;
42098;SDS011;27758;55.900;8.516;2022-09-12T16:09:15;23.17;;;13.57;;
42098;SDS011;27758;55.900;8.516;2022-09-12T16:11:40;21.02;;;15.65;;
42098;SDS011;27758;55.900;8.516;2022-09-12T16:14:06;20.92;;;15.35;;
42098;SDS011;27758;55.900;8.516;2022-09-12T16:16:32;26.05;;;16.20;;
42098;SDS011;27758;55.900;8.516;2022-09-12T16:18:59;22.27;;;15.88;;
42098;SDS011;27758;55.900;8.516;2022-09-12T16:21:24;19.55;;;14.48;;
42098;SDS011;27758;55.900;8.516;2022-09-12T16:23:50;19.77;;;13.38;;
42098;SDS011;27758;55.900;8.516;2022-09-12T16:26:16;22.30;;;14.75;;
42098;SDS011;27758;55.900;8.516;2022-09-12T16:28:42;19.38;;;14.27;;
42098;SDS011;27758;55.900;8.516;2022-09-12T16:31:09;17.67;;;13.88;;
42098;SDS011;27758;55.900;8.516;2022-09-12T16:33:37;19.48;;;14.48;;
42098;SDS011;27758;55.900;8.516;2022-09-12T16:38:33;19.40;;;14.20;;
42098;SDS011;27758;55.900;8.516;2022-09-12T16:41:05;18.33;;;14.40;;
42098;SDS011;27758;55.900;8.516;2022-09-12T16:43:32;22.15;;;15.80;;
42098;SDS011;27758;55.900;8.516;2022-09-12T16:45:59;24.27;;;15.30;;
42098;SDS011;27758;55.900;8.516;2022-09-12T16:48:27;21.50;;;14.57;;
42098;SDS011;27758;55.900;8.516;2022-09-12T16:50:56;20.02;;;14.48;;
42098;SDS011;27758;55.900;8.516;2022-09-12T16:53:23;24.98;;;16.00;;
42098;SDS011;27758;55.900;8.516;2022-09-12T16:55:49;21.70;;;15.23;;
42098;SDS011;27758;55.900;8.516;2022-09-12T16:58:15;22.73;;;15.93;;
42098;SDS011;27758;55.900;8.516;2022-09-12T17:00:41;26.65;;;15.82;;
42098;SDS011;27758;55.900;8.516;2022-09-12T17:03:08;22.55;;;16.02;;
42098;SDS011;27758;55.900;8.516;2022-09-12T17:05:33;19.35;;;14.52;;
42098;SDS011;27758;55.900;8.516;2022-09-12T17:08:00;24.38;;;15.57;;
42098;SDS011;27758;55.900;8.516;2022-09-12T17:10:26;23.17;;;15.85;;
42098;SDS011;27758;55.900;8.516;2022-09-12T17:12:54;22.25;;;14.43;;
42098;SDS011;27758;55.900;8.516;2022-09-12T17:15:21;22.60;;;15.52;;
42098;SDS011;27758;55.900;8.516;2022-09-12T17:17:47;20.65;;;14.52;;
42098;SDS011;27758;55.900;8.516;2022-09-12T17:20:16;23.02;;;15.32;;
42098;SDS011;27758;55.900;8.516;2022-09-12T17:22:42;20.65;;;15.15;;
42098;SDS011;27758;55.900;8.516;2022-09-12T17:25:08;23.08;;;16.30;;
42098;SDS011;27758;55.900;8.516;2022-09-12T17:27:34;29.42;;;17.30;;
42098;SDS011;27758;55.900;8.516;2022-09-12T17:30:00;24.02;;;16.58;;
42098;SDS011;27758;55.900;8.516;2022-09-12T17:32:26;23.48;;;15.90;;
42098;SDS011;27758;55.900;8.516;2022-09-12T17:34:52;25.02;;;16.45;;
42098;SDS011;27758;55.900;8.516;2022-09-12T17:37:18;19.88;;;15.15;;
42098;SDS011;27758;55.900;8.516;2022-09-12T17:39:44;22.13;;;16.27;;
42098;SDS011;27758;55.900;8.516;2022-09-12T17:42:10;27.83;;;18.25;;
42098;SDS011;27758;55.900;8.516;2022-09-12T17:44:36;22.55;;;18.33;;
42098;SDS011;27758;55.900;8.516;2022-09-12T17:47:03;24.23;;;18.63;;
42098;SDS011;27758;55.900;8.516;2022-09-12T17:49:28;25.42;;;18.10;;
42098;SDS011;27758;55.900;8.516;2022-09-12T17:51:55;25.77;;;18.60;;